sensor_id;sensor_type;location;lat;lon;timestamp;pressure;altitude;pressure_sealevel;temperature;humidity
77086;BME280;66014;53.134;18.006;2023-03-23T00:01:56;100246.04;;;10.84;70.86
77086;BME280;66014;53.134;18.006;2023-03-23T00:04:22;100245.86;;;10.83;70.71
77086;BME280;66014;53.134;18.006;2023-03-23T00:06:52;100240.66;;;10.80;70.73
77086;BME280;66014;53.134;18.006;2023-03-23T00:09:21;100241.55;;;10.79;70.67
77086;BME280;66014;53.134;18.006;2023-03-23T00:11:57;100238.41;;;10.77;70.78
77086;BME280;66014;53.134;18.006;2023-03-23T00:14:32;100240.05;;;10.77;70.85
77086;BME280;66014;53.134;18.006;2023-03-23T00:17:08;100240.38;;;10.77;70.66
77086;BME280;66014;53.134;18.006;2023-03-23T00:19:38;100239.08;;;10.77;70.70
77086;BME280;66014;53.134;18.006;2023-03-23T00:22:13;100238.73;;;10.77;70.66
77086;BME280;66014;53.134;18.006;2023-03-23T00:24:43;100234.45;;;10.77;70.62
77086;BME280;66014;53.134;18.006;2023-03-23T00:27:11;100234.73;;;10.77;70.66
77086;BME280;66014;53.134;18.006;2023-03-23T00:29:41;100237.01;;;10.76;70.56
77086;BME280;66014;53.134;18.006;2023-03-23T00:32:08;100234.38;;;10.74;70.42
77086;BME280;66014;53.134;18.006;2023-03-23T00:34:40;100235.55;;;10.73;70.49
77086;BME280;66014;53.134;18.006;2023-03-23T00:37:12;100233.26;;;10.73;70.38
77086;BME280;66014;53.134;18.006;2023-03-23T00:39:41;100230.19;;;10.73;70.45
77086;BME280;66014;53.134;18.006;2023-03-23T00:53:49;100205.02;;;10.79;70.35
77086;BME280;66014;53.134;18.006;2023-03-23T00:56:17;100207.88;;;10.78;70.25
77086;BME280;66014;53.134;18.006;2023-03-23T00:58:44;100207.90;;;10.77;70.31
77086;BME280;66014;53.134;18.006;2023-03-23T01:01:11;100205.92;;;10.76;70.34
77086;BME280;66014;53.134;18.006;2023-03-23T01:03:40;100204.40;;;10.75;70.29
77086;BME280;66014;53.134;18.006;2023-03-23T01:06:09;100204.51;;;10.73;70.18
77086;BME280;66014;53.134;18.006;2023-03-23T01:08:40;100202.40;;;10.71;70.21
77086;BME280;66014;53.134;18.006;2023-03-23T01:11:14;100202.67;;;10.70;70.20
77086;BME280;66014;53.134;18.006;2023-03-23T01:13:42;100197.59;;;10.70;70.24
77086;BME280;66014;53.134;18.006;2023-03-23T01:16:10;100192.31;;;10.70;70.29
77086;BME280;66014;53.134;18.006;2023-03-23T01:18:39;100197.50;;;10.69;70.33
77086;BME280;66014;53.134;18.006;2023-03-23T01:21:08;100197.05;;;10.69;70.30
77086;BME280;66014;53.134;18.006;2023-03-23T01:23:37;100198.13;;;10.67;70.40
77086;BME280;66014;53.134;18.006;2023-03-23T01:26:05;100198.66;;;10.66;70.44
77086;BME280;66014;53.134;18.006;2023-03-23T01:28:34;100200.73;;;10.66;70.35
77086;BME280;66014;53.134;18.006;2023-03-23T01:45:36;100174.11;;;10.47;70.91
77086;BME280;66014;53.134;18.006;2023-03-23T01:51:09;100167.42;;;10.40;70.92
77086;BME280;66014;53.134;18.006;2023-03-23T01:53:48;100165.86;;;10.37;70.99
77086;BME280;66014;53.134;18.006;2023-03-23T01:56:21;100163.92;;;10.34;71.01
77086;BME280;66014;53.134;18.006;2023-03-23T01:58:53;100165.60;;;10.32;71.04
77086;BME280;66014;53.134;18.006;2023-03-23T02:01:21;100163.83;;;10.31;71.07
77086;BME280;66014;53.134;18.006;2023-03-23T02:03:53;100164.25;;;10.29;71.09
77086;BME280;66014;53.134;18.006;2023-03-23T02:06:24;100162.06;;;10.26;71.13
77086;BME280;66014;53.134;18.006;2023-03-23T02:08:54;100163.63;;;10.24;71.08
77086;BME280;66014;53.134;18.006;2023-03-23T02:11:22;100155.08;;;10.21;71.14
77086;BME280;66014;53.134;18.006;2023-03-23T02:13:49;100150.80;;;10.20;71.08
77086;BME280;66014;53.134;18.006;2023-03-23T02:37:31;100121.19;;;9.99;71.66
77086;BME280;66014;53.134;18.006;2023-03-23T02:40:09;100127.17;;;9.97;71.51
77086;BME280;66014;53.134;18.006;2023-03-23T02:42:41;100121.59;;;9.95;71.53
77086;BME280;66014;53.134;18.006;2023-03-23T02:45:11;100113.14;;;9.93;71.51
77086;BME280;66014;53.134;18.006;2023-03-23T02:47:41;100110.84;;;9.92;71.58
77086;BME280;66014;53.134;18.006;2023-03-23T02:50:13;100105.60;;;9.91;71.63
77086;BME280;66014;53.134;18.006;2023-03-23T02:52:43;100097.63;;;9.90;71.65
77086;BME280;66014;53.134;18.006;2023-03-23T02:55:11;100097.34;;;9.89;71.62
77086;BME280;66014;53.134;18.006;2023-03-23T02:57:41;100101.52;;;9.89;71.70
77086;BME280;66014;53.134;18.006;2023-03-23T03:00:12;100103.13;;;9.87;71.73
77086;BME280;66014;53.134;18.006;2023-03-23T03:02:42;100101.38;;;9.85;71.73
77086;BME280;66014;53.134;18.006;2023-03-23T03:10:44;100109.20;;;9.79;71.76
77086;BME280;66014;53.134;18.006;2023-03-23T03:14:14;100109.61;;;9.76;71.89
77086;BME280;66014;53.134;18.006;2023-03-23T03:16:43;100112.36;;;9.75;71.83
77086;BME280;66014;53.134;18.006;2023-03-23T03:19:16;100110.02;;;9.74;71.92
77086;BME280;66014;53.134;18.006;2023-03-23T03:21:46;100102.81;;;9.72;71.89
77086;BME280;66014;53.134;18.006;2023-03-23T03:24:17;100099.22;;;9.70;72.00
77086;BME280;66014;53.134;18.006;2023-03-23T03:26:51;100096.83;;;9.67;72.05
77086;BME280;66014;53.134;18.006;2023-03-23T03:29:25;100091.92;;;9.66;72.07
77086;BME280;66014;53.134;18.006;2023-03-23T03:31:54;100092.27;;;9.64;72.08
77086;BME280;66014;53.134;18.006;2023-03-23T03:34:24;100091.13;;;9.63;72.02
77086;BME280;66014;53.134;18.006;2023-03-23T03:36:52;100092.70;;;9.62;72.23
77086;BME280;66014;53.134;18.006;2023-03-23T03:39:20;100090.83;;;9.60;72.15
77086;BME280;66014;53.134;18.006;2023-03-23T03:41:48;100087.46;;;9.59;72.21
77086;BME280;66014;53.134;18.006;2023-03-23T03:44:17;100084.16;;;9.57;72.19
77086;BME280;66014;53.134;18.006;2023-03-23T03:46:44;100083.15;;;9.55;72.29
77086;BME280;66014;53.134;18.006;2023-03-23T03:49:11;100081.77;;;9.52;72.37
77086;BME280;66014;53.134;18.006;2023-03-23T03:51:43;100075.08;;;9.50;72.42
77086;BME280;66014;53.134;18.006;2023-03-23T03:54:10;100066.60;;;9.48;72.49
77086;BME280;66014;53.134;18.006;2023-03-23T03:56:42;100066.10;;;9.48;72.47
77086;BME280;66014;53.134;18.006;2023-03-23T03:59:09;100071.57;;;9.47;72.39
77086;BME280;66014;53.134;18.006;2023-03-23T04:01:37;100072.48;;;9.45;72.48
77086;BME280;66014;53.134;18.006;2023-03-23T04:04:04;100068.61;;;9.43;72.44
77086;BME280;66014;53.134;18.006;2023-03-23T04:06:33;100068.91;;;9.41;72.50
77086;BME280;66014;53.134;18.006;2023-03-23T04:09:03;100069.14;;;9.39;72.59
77086;BME280;66014;53.134;18.006;2023-03-23T04:11:34;100071.30;;;9.39;72.59
77086;BME280;66014;53.134;18.006;2023-03-23T04:14:02;100070.17;;;9.38;72.56
77086;BME280;66014;53.134;18.006;2023-03-23T04:16:29;100072.08;;;9.37;72.54
77086;BME280;66014;53.134;18.006;2023-03-23T04:18:56;100073.45;;;9.36;72.74
77086;BME280;66014;53.134;18.006;2023-03-23T04:21:22;100075.02;;;9.33;72.64
77086;BME280;66014;53.134;18.006;2023-03-23T04:31:13;100075.60;;;9.27;72.83
77086;BME280;66014;53.134;18.006;2023-03-23T04:37:30;100060.63;;;9.31;72.75
77086;BME280;66014;53.134;18.006;2023-03-23T04:40:17;100059.13;;;9.34;72.69
77086;BME280;66014;53.134;18.006;2023-03-23T05:12:52;100029.57;;;9.68;72.01
77086;BME280;66014;53.134;18.006;2023-03-23T05:16:13;100019.11;;;9.74;71.74
77086;BME280;66014;53.134;18.006;2023-03-23T05:19:11;100019.70;;;9.80;71.55
77086;BME280;66014;53.134;18.006;2023-03-23T05:25:25;100031.25;;;9.93;71.34
77086;BME280;66014;53.134;18.006;2023-03-23T05:27:52;100029.13;;;9.97;71.30
77086;BME280;66014;53.134;18.006;2023-03-23T05:30:20;100024.27;;;10.01;71.03
77086;BME280;66014;53.134;18.006;2023-03-23T05:32:48;100020.48;;;10.05;70.92
77086;BME280;66014;53.134;18.006;2023-03-23T05:46:55;99998.38;;;10.33;70.24
77086;BME280;66014;53.134;18.006;2023-03-23T05:49:22;99990.34;;;10.39;69.75
77086;BME280;66014;53.134;18.006;2023-03-23T06:02:48;99971.59;;;10.76;68.88
77086;BME280;66014;53.134;18.006;2023-03-23T06:05:19;99975.84;;;10.86;68.63
77086;BME280;66014;53.134;18.006;2023-03-23T06:16:03;99975.13;;;11.20;67.54
77086;BME280;66014;53.134;18.006;2023-03-23T06:18:30;99967.95;;;11.25;67.45
77086;BME280;66014;53.134;18.006;2023-03-23T06:21:05;99956.65;;;11.28;67.25
77086;BME280;66014;53.134;18.006;2023-03-23T06:23:32;99955.55;;;11.34;66.75
77086;BME280;66014;53.134;18.006;2023-03-23T06:26:07;99968.71;;;11.40;66.42
77086;BME280;66014;53.134;18.006;2023-03-23T06:28:47;99977.11;;;11.49;66.23
77086;BME280;66014;53.134;18.006;2023-03-23T06:31:19;99979.46;;;11.58;66.31
77086;BME280;66014;53.134;18.006;2023-03-23T06:33:52;99980.20;;;11.68;65.93
77086;BME280;66014;53.134;18.006;2023-03-23T06:36:20;99979.55;;;11.77;65.52
77086;BME280;66014;53.134;18.006;2023-03-23T06:57:33;99977.61;;;12.84;63.01
77086;BME280;66014;53.134;18.006;2023-03-23T06:59:59;99978.57;;;13.09;61.87
77086;BME280;66014;53.134;18.006;2023-03-23T07:02:29;99974.51;;;13.20;60.78
77086;BME280;66014;53.134;18.006;2023-03-23T07:04:56;99978.00;;;13.07;61.29
77086;BME280;66014;53.134;18.006;2023-03-23T07:07:25;99982.78;;;12.97;61.38
77086;BME280;66014;53.134;18.006;2023-03-23T07:09:52;99984.46;;;12.88;61.42
77086;BME280;66014;53.134;18.006;2023-03-23T07:12:19;99991.21;;;12.82;61.30
77086;BME280;66014;53.134;18.006;2023-03-23T07:14:46;99987.71;;;12.83;61.33
77086;BME280;66014;53.134;18.006;2023-03-23T07:17:13;99983.73;;;12.82;60.93
77086;BME280;66014;53.134;18.006;2023-03-23T07:19:40;99979.98;;;13.00;60.57
77086;BME280;66014;53.134;18.006;2023-03-23T07:22:07;99966.08;;;13.07;60.45
77086;BME280;66014;53.134;18.006;2023-03-23T07:24:34;99956.77;;;13.11;59.92
77086;BME280;66014;53.134;18.006;2023-03-23T07:27:01;99962.77;;;13.24;59.86
77086;BME280;66014;53.134;18.006;2023-03-23T07:29:30;99965.67;;;13.76;58.66
77086;BME280;66014;53.134;18.006;2023-03-23T07:31:57;99961.75;;;14.68;56.50
77086;BME280;66014;53.134;18.006;2023-03-23T07:34:26;99965.83;;;15.02;56.36
77086;BME280;66014;53.134;18.006;2023-03-23T07:36:53;99967.14;;;15.34;55.86
77086;BME280;66014;53.134;18.006;2023-03-23T07:39:21;99974.78;;;16.00;54.55
77086;BME280;66014;53.134;18.006;2023-03-23T07:41:50;99979.14;;;16.32;54.00
77086;BME280;66014;53.134;18.006;2023-03-23T07:44:17;99974.13;;;16.22;54.59
77086;BME280;66014;53.134;18.006;2023-03-23T07:46:44;99971.98;;;15.97;52.17
77086;BME280;66014;53.134;18.006;2023-03-23T07:49:10;99970.38;;;15.70;52.79
77086;BME280;66014;53.134;18.006;2023-03-23T07:51:40;99963.73;;;15.50;53.92
77086;BME280;66014;53.134;18.006;2023-03-23T07:54:07;99973.27;;;15.44;52.70
77086;BME280;66014;53.134;18.006;2023-03-23T07:56:34;99973.80;;;15.53;53.18
77086;BME280;66014;53.134;18.006;2023-03-23T07:59:03;99980.33;;;15.60;52.45
77086;BME280;66014;53.134;18.006;2023-03-23T08:01:36;99986.51;;;15.35;51.96
77086;BME280;66014;53.134;18.006;2023-03-23T08:04:06;99982.70;;;15.05;53.20
77086;BME280;66014;53.134;18.006;2023-03-23T08:06:35;99986.09;;;14.84;54.01
77086;BME280;66014;53.134;18.006;2023-03-23T08:09:05;99980.86;;;14.74;54.46
77086;BME280;66014;53.134;18.006;2023-03-23T08:11:57;99979.34;;;14.73;54.55
77086;BME280;66014;53.134;18.006;2023-03-23T08:14:23;99988.26;;;14.71;54.22
77086;BME280;66014;53.134;18.006;2023-03-23T08:17:11;99995.48;;;14.67;54.59
77086;BME280;66014;53.134;18.006;2023-03-23T08:19:38;99994.67;;;14.64;55.00
77086;BME280;66014;53.134;18.006;2023-03-23T08:26:41;99992.44;;;14.51;54.79
77086;BME280;66014;53.134;18.006;2023-03-23T08:29:08;99995.02;;;14.43;55.42
77086;BME280;66014;53.134;18.006;2023-03-23T08:31:35;99991.58;;;14.43;55.71
77086;BME280;66014;53.134;18.006;2023-03-23T08:37:56;99995.48;;;14.64;55.37
77086;BME280;66014;53.134;18.006;2023-03-23T08:40:27;99992.39;;;14.75;55.56
77086;BME280;66014;53.134;18.006;2023-03-23T08:42:55;99989.04;;;14.90;55.57
77086;BME280;66014;53.134;18.006;2023-03-23T08:49:23;99985.52;;;15.19;54.54
77086;BME280;66014;53.134;18.006;2023-03-23T08:59:25;99979.04;;;15.40;54.37
77086;BME280;66014;53.134;18.006;2023-03-23T09:01:51;99976.50;;;15.76;53.64
77086;BME280;66014;53.134;18.006;2023-03-23T09:04:19;99980.29;;;16.11;52.95
77086;BME280;66014;53.134;18.006;2023-03-23T09:06:46;99978.76;;;16.26;52.91
77086;BME280;66014;53.134;18.006;2023-03-23T09:09:12;99981.45;;;16.30;52.16
77086;BME280;66014;53.134;18.006;2023-03-23T09:11:39;99981.77;;;16.30;51.20
77086;BME280;66014;53.134;18.006;2023-03-23T09:14:07;99987.84;;;16.30;51.48
77086;BME280;66014;53.134;18.006;2023-03-23T09:16:37;99988.15;;;16.32;51.33
77086;BME280;66014;53.134;18.006;2023-03-23T09:19:04;99986.20;;;16.43;51.34
77086;BME280;66014;53.134;18.006;2023-03-23T09:21:31;99992.64;;;16.58;50.64
77086;BME280;66014;53.134;18.006;2023-03-23T09:23:58;99991.40;;;16.68;51.15
77086;BME280;66014;53.134;18.006;2023-03-23T09:26:27;99992.89;;;16.80;50.51
77086;BME280;66014;53.134;18.006;2023-03-23T09:28:58;99999.14;;;16.73;49.72
77086;BME280;66014;53.134;18.006;2023-03-23T09:31:25;99999.23;;;16.59;49.95
77086;BME280;66014;53.134;18.006;2023-03-23T09:33:54;100000.36;;;16.43;50.06
77086;BME280;66014;53.134;18.006;2023-03-23T09:36:24;99999.77;;;16.23;50.30
77086;BME280;66014;53.134;18.006;2023-03-23T09:38:52;100004.23;;;16.03;50.58
77086;BME280;66014;53.134;18.006;2023-03-23T09:45:10;100008.23;;;15.73;51.08
77086;BME280;66014;53.134;18.006;2023-03-23T09:50:25;100001.07;;;15.41;52.57
77086;BME280;66014;53.134;18.006;2023-03-23T09:53:08;100006.33;;;15.39;52.78
77086;BME280;66014;53.134;18.006;2023-03-23T09:55:37;100005.98;;;15.33;52.74
77086;BME280;66014;53.134;18.006;2023-03-23T10:01:02;100016.14;;;15.10;53.48
77086;BME280;66014;53.134;18.006;2023-03-23T10:03:40;100013.39;;;15.04;53.68
77086;BME280;66014;53.134;18.006;2023-03-23T10:06:12;100017.04;;;14.99;53.83
77086;BME280;66014;53.134;18.006;2023-03-23T10:08:43;100016.15;;;14.95;53.96
77086;BME280;66014;53.134;18.006;2023-03-23T10:17:28;100018.12;;;14.88;54.55
77086;BME280;66014;53.134;18.006;2023-03-23T10:25:36;100024.55;;;14.92;54.73
77086;BME280;66014;53.134;18.006;2023-03-23T10:28:21;100027.88;;;14.95;54.88
77086;BME280;66014;53.134;18.006;2023-03-23T10:30:58;100035.14;;;14.94;55.56
77086;BME280;66014;53.134;18.006;2023-03-23T10:33:37;100033.46;;;14.92;55.95
77086;BME280;66014;53.134;18.006;2023-03-23T10:39:58;100038.76;;;14.86;56.54
77086;BME280;66014;53.134;18.006;2023-03-23T10:42:30;100040.86;;;14.80;57.09
77086;BME280;66014;53.134;18.006;2023-03-23T10:45:27;100041.73;;;14.74;57.48
77086;BME280;66014;53.134;18.006;2023-03-23T11:06:22;100051.18;;;14.26;60.07
77086;BME280;66014;53.134;18.006;2023-03-23T11:09:00;100051.34;;;14.28;60.04
77086;BME280;66014;53.134;18.006;2023-03-23T11:12:33;100051.44;;;14.32;60.03
77086;BME280;66014;53.134;18.006;2023-03-23T11:29:22;100061.72;;;14.55;60.40
77086;BME280;66014;53.134;18.006;2023-03-23T11:32:00;100057.96;;;14.60;60.51
77086;BME280;66014;53.134;18.006;2023-03-23T11:34:37;100053.77;;;14.53;59.95
77086;BME280;66014;53.134;18.006;2023-03-23T11:38:34;100051.66;;;14.46;60.18
77086;BME280;66014;53.134;18.006;2023-03-23T11:41:09;100045.17;;;14.51;60.08
77086;BME280;66014;53.134;18.006;2023-03-23T11:43:40;100044.40;;;14.55;59.92
77086;BME280;66014;53.134;18.006;2023-03-23T11:57:14;100048.90;;;14.47;60.52
77086;BME280;66014;53.134;18.006;2023-03-23T12:03:58;100054.61;;;14.57;59.89
77086;BME280;66014;53.134;18.006;2023-03-23T12:16:37;100050.05;;;14.55;59.88
77086;BME280;66014;53.134;18.006;2023-03-23T12:19:27;100042.46;;;14.91;59.62
77086;BME280;66014;53.134;18.006;2023-03-23T12:27:23;100035.13;;;15.24;58.76
77086;BME280;66014;53.134;18.006;2023-03-23T12:30:02;100037.16;;;15.32;58.90
77086;BME280;66014;53.134;18.006;2023-03-23T12:35:45;100031.53;;;15.61;58.20
77086;BME280;66014;53.134;18.006;2023-03-23T12:38:31;100026.42;;;15.53;57.52
77086;BME280;66014;53.134;18.006;2023-03-23T12:43:52;100035.45;;;15.19;58.18
77086;BME280;66014;53.134;18.006;2023-03-23T12:54:42;100026.94;;;14.84;58.38
77086;BME280;66014;53.134;18.006;2023-03-23T12:57:47;100022.23;;;14.76;58.18
77086;BME280;66014;53.134;18.006;2023-03-23T13:00:22;100025.83;;;14.69;58.52
77086;BME280;66014;53.134;18.006;2023-03-23T13:03:10;100028.72;;;14.68;58.52
77086;BME280;66014;53.134;18.006;2023-03-23T13:05:54;100030.95;;;14.64;58.15
77086;BME280;66014;53.134;18.006;2023-03-23T13:08:38;100031.73;;;14.61;58.30
77086;BME280;66014;53.134;18.006;2023-03-23T13:11:16;100027.56;;;14.58;58.39
77086;BME280;66014;53.134;18.006;2023-03-23T13:13:50;100024.81;;;14.57;58.02
77086;BME280;66014;53.134;18.006;2023-03-23T13:16:29;100030.13;;;14.57;58.01
77086;BME280;66014;53.134;18.006;2023-03-23T13:19:28;100031.85;;;14.59;58.09
77086;BME280;66014;53.134;18.006;2023-03-23T13:22:13;100026.14;;;14.66;58.14
77086;BME280;66014;53.134;18.006;2023-03-23T13:24:56;100024.53;;;14.76;58.19
77086;BME280;66014;53.134;18.006;2023-03-23T13:27:25;100027.89;;;14.83;57.97
77086;BME280;66014;53.134;18.006;2023-03-23T13:29:55;100025.48;;;14.89;58.06
77086;BME280;66014;53.134;18.006;2023-03-23T13:32:29;100025.14;;;14.91;57.61
77086;BME280;66014;53.134;18.006;2023-03-23T13:34:56;100029.58;;;14.89;57.65
77086;BME280;66014;53.134;18.006;2023-03-23T13:37:27;100028.43;;;14.84;57.62
77086;BME280;66014;53.134;18.006;2023-03-23T13:40:13;100031.55;;;14.80;57.61
77086;BME280;66014;53.134;18.006;2023-03-23T13:42:50;100029.98;;;14.80;57.83
77086;BME280;66014;53.134;18.006;2023-03-23T13:45:21;100033.56;;;14.80;57.19
77086;BME280;66014;53.134;18.006;2023-03-23T13:47:49;100034.27;;;14.75;57.30
77086;BME280;66014;53.134;18.006;2023-03-23T13:55:20;100022.28;;;14.74;57.96
77086;BME280;66014;53.134;18.006;2023-03-23T14:03:25;100021.67;;;14.82;57.94
77086;BME280;66014;53.134;18.006;2023-03-23T14:11:10;100023.23;;;15.04;58.10
77086;BME280;66014;53.134;18.006;2023-03-23T14:16:21;100023.78;;;15.09;58.14
77086;BME280;66014;53.134;18.006;2023-03-23T14:18:55;100021.66;;;15.05;58.36
77086;BME280;66014;53.134;18.006;2023-03-23T14:21:32;100019.74;;;14.99;58.52
77086;BME280;66014;53.134;18.006;2023-03-23T14:24:02;100022.78;;;14.93;58.63
77086;BME280;66014;53.134;18.006;2023-03-23T14:26:33;100028.79;;;14.90;58.75
77086;BME280;66014;53.134;18.006;2023-03-23T14:29:03;100026.63;;;14.86;58.94
77086;BME280;66014;53.134;18.006;2023-03-23T14:31:32;100020.88;;;14.79;58.92
77086;BME280;66014;53.134;18.006;2023-03-23T14:34:03;100017.83;;;14.74;59.15
77086;BME280;66014;53.134;18.006;2023-03-23T14:36:31;100015.17;;;14.71;59.29
77086;BME280;66014;53.134;18.006;2023-03-23T14:41:42;100014.08;;;14.64;59.70
77086;BME280;66014;53.134;18.006;2023-03-23T14:44:32;100015.35;;;14.60;59.85
77086;BME280;66014;53.134;18.006;2023-03-23T14:47:19;100020.58;;;14.57;59.91
77086;BME280;66014;53.134;18.006;2023-03-23T14:54:24;100003.08;;;14.55;59.84
77086;BME280;66014;53.134;18.006;2023-03-23T14:56:51;100013.45;;;14.55;59.80
77086;BME280;66014;53.134;18.006;2023-03-23T14:59:49;100004.06;;;14.53;59.84
77086;BME280;66014;53.134;18.006;2023-03-23T15:05:30;100013.22;;;14.54;59.98
77086;BME280;66014;53.134;18.006;2023-03-23T15:08:04;100012.80;;;14.55;60.03
77086;BME280;66014;53.134;18.006;2023-03-23T15:10:35;100014.63;;;14.53;60.01
77086;BME280;66014;53.134;18.006;2023-03-23T15:20:59;99981.86;;;14.48;60.38
77086;BME280;66014;53.134;18.006;2023-03-23T15:30:46;99995.40;;;14.45;60.81
77086;BME280;66014;53.134;18.006;2023-03-23T15:33:14;99996.63;;;14.47;60.83
77086;BME280;66014;53.134;18.006;2023-03-23T15:42:37;99994.28;;;14.75;60.33
77086;BME280;66014;53.134;18.006;2023-03-23T15:47:45;100012.30;;;14.65;60.36
77086;BME280;66014;53.134;18.006;2023-03-23T15:52:42;100022.67;;;14.51;60.61
77086;BME280;66014;53.134;18.006;2023-03-23T15:55:25;100032.85;;;14.44;60.76
77086;BME280;66014;53.134;18.006;2023-03-23T15:57:54;100035.51;;;14.37;61.06
77086;BME280;66014;53.134;18.006;2023-03-23T16:00:23;100031.48;;;14.33;61.18
77086;BME280;66014;53.134;18.006;2023-03-23T16:03:04;100030.73;;;14.29;61.34
77086;BME280;66014;53.134;18.006;2023-03-23T16:05:32;100015.55;;;14.27;61.49
77086;BME280;66014;53.134;18.006;2023-03-23T16:07:59;100025.00;;;14.25;61.60
77086;BME280;66014;53.134;18.006;2023-03-23T16:10:27;100032.19;;;14.23;61.69
77086;BME280;66014;53.134;18.006;2023-03-23T16:12:55;100028.14;;;14.23;61.82
77086;BME280;66014;53.134;18.006;2023-03-23T16:15:22;100028.27;;;14.20;61.94
77086;BME280;66014;53.134;18.006;2023-03-23T16:17:48;100033.70;;;14.17;61.86
77086;BME280;66014;53.134;18.006;2023-03-23T16:20:21;100039.85;;;14.14;61.88
77086;BME280;66014;53.134;18.006;2023-03-23T16:22:49;100043.99;;;14.11;62.36
77086;BME280;66014;53.134;18.006;2023-03-23T16:25:18;100040.23;;;14.07;62.67
77086;BME280;66014;53.134;18.006;2023-03-23T16:27:46;100039.40;;;13.99;63.00
77086;BME280;66014;53.134;18.006;2023-03-23T16:30:19;100036.16;;;13.90;63.20
77086;BME280;66014;53.134;18.006;2023-03-23T16:32:49;100034.02;;;13.81;63.30
77086;BME280;66014;53.134;18.006;2023-03-23T16:35:15;100029.27;;;13.74;63.66
77086;BME280;66014;53.134;18.006;2023-03-23T16:37:47;100049.00;;;13.68;63.91
77086;BME280;66014;53.134;18.006;2023-03-23T16:40:15;100059.27;;;13.58;64.46
77086;BME280;66014;53.134;18.006;2023-03-23T16:42:43;100058.98;;;13.46;65.04
77086;BME280;66014;53.134;18.006;2023-03-23T16:45:10;100056.52;;;13.34;65.34
77086;BME280;66014;53.134;18.006;2023-03-23T16:47:38;100054.02;;;13.25;65.63
77086;BME280;66014;53.134;18.006;2023-03-23T16:50:07;100051.48;;;13.19;65.95
77086;BME280;66014;53.134;18.006;2023-03-23T16:52:34;100048.33;;;13.15;65.98
77086;BME280;66014;53.134;18.006;2023-03-23T16:58:44;100052.97;;;13.12;66.50
77086;BME280;66014;53.134;18.006;2023-03-23T17:04:55;100054.30;;;13.12;66.70
77086;BME280;66014;53.134;18.006;2023-03-23T17:07:27;100051.01;;;13.10;66.88
77086;BME280;66014;53.134;18.006;2023-03-23T17:09:53;100048.41;;;13.07;67.02
77086;BME280;66014;53.134;18.006;2023-03-23T17:16:00;100057.20;;;13.03;67.21
77086;BME280;66014;53.134;18.006;2023-03-23T17:18:28;100060.34;;;13.04;67.26
77086;BME280;66014;53.134;18.006;2023-03-23T17:21:09;100058.16;;;13.05;67.36
77086;BME280;66014;53.134;18.006;2023-03-23T17:23:36;100067.16;;;13.06;67.40
77086;BME280;66014;53.134;18.006;2023-03-23T17:26:02;100066.21;;;13.08;67.32
77086;BME280;66014;53.134;18.006;2023-03-23T17:32:36;100071.26;;;13.11;66.96
77086;BME280;66014;53.134;18.006;2023-03-23T17:35:04;100066.71;;;13.13;66.88
77086;BME280;66014;53.134;18.006;2023-03-23T17:38:12;100063.20;;;13.17;66.67
77086;BME280;66014;53.134;18.006;2023-03-23T17:40:38;100064.02;;;13.17;66.53
77086;BME280;66014;53.134;18.006;2023-03-23T17:43:09;100061.65;;;13.16;66.52
77086;BME280;66014;53.134;18.006;2023-03-23T17:45:45;100063.63;;;13.15;66.43
77086;BME280;66014;53.134;18.006;2023-03-23T17:56:05;100082.08;;;13.08;66.28
77086;BME280;66014;53.134;18.006;2023-03-23T17:58:44;100082.77;;;13.06;66.41
77086;BME280;66014;53.134;18.006;2023-03-23T18:15:30;100083.80;;;13.41;65.45
77086;BME280;66014;53.134;18.006;2023-03-23T18:18:23;100091.00;;;13.38;65.29
77086;BME280;66014;53.134;18.006;2023-03-23T18:20:57;100095.87;;;13.29;65.43
77086;BME280;66014;53.134;18.006;2023-03-23T18:23:25;100098.55;;;13.21;65.63
77086;BME280;66014;53.134;18.006;2023-03-23T18:25:51;100105.02;;;13.14;65.78
77086;BME280;66014;53.134;18.006;2023-03-23T18:31:59;100105.84;;;13.02;66.03
77086;BME280;66014;53.134;18.006;2023-03-23T18:35:04;100107.27;;;12.99;66.09
77086;BME280;66014;53.134;18.006;2023-03-23T18:37:31;100110.47;;;12.95;66.15
77086;BME280;66014;53.134;18.006;2023-03-23T18:43:38;100106.02;;;12.90;66.39
77086;BME280;66014;53.134;18.006;2023-03-23T18:46:10;100098.66;;;12.87;66.42
77086;BME280;66014;53.134;18.006;2023-03-23T18:48:35;100091.39;;;12.85;66.37
77086;BME280;66014;53.134;18.006;2023-03-23T18:51:02;100092.08;;;12.84;66.43
77086;BME280;66014;53.134;18.006;2023-03-23T18:53:29;100091.89;;;12.83;66.45
77086;BME280;66014;53.134;18.006;2023-03-23T18:56:09;100087.81;;;12.81;66.52
77086;BME280;66014;53.134;18.006;2023-03-23T18:58:36;100092.09;;;12.80;66.64
77086;BME280;66014;53.134;18.006;2023-03-23T19:01:09;100107.61;;;12.80;66.77
77086;BME280;66014;53.134;18.006;2023-03-23T19:03:37;100148.70;;;12.80;66.78
77086;BME280;66014;53.134;18.006;2023-03-23T19:06:18;100167.85;;;12.82;67.07
77086;BME280;66014;53.134;18.006;2023-03-23T19:26:59;100164.70;;;12.38;68.67
77086;BME280;66014;53.134;18.006;2023-03-23T19:29:26;100167.48;;;12.34;68.78
77086;BME280;66014;53.134;18.006;2023-03-23T19:35:27;100167.17;;;12.28;68.74
77086;BME280;66014;53.134;18.006;2023-03-23T19:41:37;100158.93;;;12.23;69.00
77086;BME280;66014;53.134;18.006;2023-03-23T19:44:03;100153.13;;;12.20;69.27
77086;BME280;66014;53.134;18.006;2023-03-23T19:47:08;100152.15;;;12.21;69.36
77086;BME280;66014;53.134;18.006;2023-03-23T19:49:34;100157.73;;;12.19;69.71